sensor_id;sensor_type;location;lat;lon;timestamp;P1;durP1;ratioP1;P2;durP2;ratioP2
46651;SDS011;32377;52.182;5.398;2022-08-20T00:00:12;23.27;;;15.15;;
46651;SDS011;32377;52.182;5.398;2022-08-20T00:02:41;25.33;;;15.25;;
46651;SDS011;32377;52.182;5.398;2022-08-20T00:05:09;25.25;;;14.20;;
46651;SDS011;32377;52.182;5.398;2022-08-20T00:07:35;21.70;;;14.73;;
46651;SDS011;32377;52.182;5.398;2022-08-20T00:10:01;23.83;;;15.02;;
46651;SDS011;32377;52.182;5.398;2022-08-20T00:12:27;24.95;;;16.35;;
46651;SDS011;32377;52.182;5.398;2022-08-20T00:14:53;23.77;;;16.27;;
46651;SDS011;32377;52.182;5.398;2022-08-20T00:17:19;23.55;;;15.55;;
46651;SDS011;32377;52.182;5.398;2022-08-20T00:19:44;22.90;;;15.23;;
46651;SDS011;32377;52.182;5.398;2022-08-20T00:22:10;29.55;;;15.95;;
46651;SDS011;32377;52.182;5.398;2022-08-20T00:24:35;22.23;;;15.93;;
46651;SDS011;32377;52.182;5.398;2022-08-20T00:27:01;24.08;;;16.05;;
46651;SDS011;32377;52.182;5.398;2022-08-20T00:29:28;20.38;;;15.70;;
46651;SDS011;32377;52.182;5.398;2022-08-20T00:31:53;21.30;;;16.23;;
46651;SDS011;32377;52.182;5.398;2022-08-20T00:34:19;25.13;;;15.13;;
46651;SDS011;32377;52.182;5.398;2022-08-20T00:36:44;20.42;;;14.48;;
46651;SDS011;32377;52.182;5.398;2022-08-20T00:39:10;19.25;;;13.75;;
46651;SDS011;32377;52.182;5.398;2022-08-20T00:41:36;20.92;;;13.93;;
46651;SDS011;32377;52.182;5.398;2022-08-20T00:44:12;19.52;;;13.82;;
46651;SDS011;32377;52.182;5.398;2022-08-20T00:46:40;22.35;;;13.73;;
46651;SDS011;32377;52.182;5.398;2022-08-20T00:49:08;18.58;;;12.23;;
46651;SDS011;32377;52.182;5.398;2022-08-20T00:56:38;20.23;;;12.80;;
46651;SDS011;32377;52.182;5.398;2022-08-20T00:59:06;17.77;;;12.68;;
46651;SDS011;32377;52.182;5.398;2022-08-20T01:01:35;17.67;;;12.25;;
46651;SDS011;32377;52.182;5.398;2022-08-20T01:04:05;15.18;;;11.57;;
46651;SDS011;32377;52.182;5.398;2022-08-20T01:06:30;19.67;;;12.15;;
46651;SDS011;32377;52.182;5.398;2022-08-20T01:08:56;16.63;;;12.07;;
46651;SDS011;32377;52.182;5.398;2022-08-20T01:11:26;22.95;;;13.70;;
46651;SDS011;32377;52.182;5.398;2022-08-20T01:14:00;24.77;;;13.82;;
46651;SDS011;32377;52.182;5.398;2022-08-20T01:16:44;22.15;;;14.48;;
46651;SDS011;32377;52.182;5.398;2022-08-20T01:19:10;25.55;;;15.93;;
46651;SDS011;32377;52.182;5.398;2022-08-20T01:21:38;26.38;;;15.73;;
46651;SDS011;32377;52.182;5.398;2022-08-20T01:24:06;29.98;;;16.25;;
46651;SDS011;32377;52.182;5.398;2022-08-20T01:26:45;36.72;;;18.65;;
46651;SDS011;32377;52.182;5.398;2022-08-20T01:29:13;31.98;;;18.30;;
46651;SDS011;32377;52.182;5.398;2022-08-20T01:31:46;28.17;;;18.60;;
46651;SDS011;32377;52.182;5.398;2022-08-20T01:34:13;34.58;;;19.00;;
46651;SDS011;32377;52.182;5.398;2022-08-20T01:36:45;27.77;;;18.75;;
46651;SDS011;32377;52.182;5.398;2022-08-20T01:39:17;28.73;;;17.85;;
46651;SDS011;32377;52.182;5.398;2022-08-20T01:44:37;30.55;;;19.55;;
46651;SDS011;32377;52.182;5.398;2022-08-20T01:47:09;33.58;;;19.38;;
46651;SDS011;32377;52.182;5.398;2022-08-20T01:49:42;32.13;;;20.17;;
46651;SDS011;32377;52.182;5.398;2022-08-20T01:52:15;28.35;;;16.95;;
46651;SDS011;32377;52.182;5.398;2022-08-20T01:55:02;28.40;;;16.60;;
46651;SDS011;32377;52.182;5.398;2022-08-20T01:57:28;29.27;;;16.02;;
46651;SDS011;32377;52.182;5.398;2022-08-20T01:59:54;32.30;;;18.27;;
46651;SDS011;32377;52.182;5.398;2022-08-20T02:02:20;26.35;;;17.40;;
46651;SDS011;32377;52.182;5.398;2022-08-20T02:04:48;36.70;;;18.67;;
46651;SDS011;32377;52.182;5.398;2022-08-20T02:07:16;28.05;;;17.88;;
46651;SDS011;32377;52.182;5.398;2022-08-20T02:09:45;33.67;;;17.77;;
46651;SDS011;32377;52.182;5.398;2022-08-20T02:12:11;31.90;;;18.10;;
46651;SDS011;32377;52.182;5.398;2022-08-20T02:14:41;30.35;;;16.38;;
46651;SDS011;32377;52.182;5.398;2022-08-20T02:17:09;30.95;;;17.77;;
46651;SDS011;32377;52.182;5.398;2022-08-20T02:22:10;28.65;;;15.98;;
46651;SDS011;32377;52.182;5.398;2022-08-20T02:24:41;24.73;;;15.05;;
46651;SDS011;32377;52.182;5.398;2022-08-20T02:27:08;26.60;;;15.07;;
46651;SDS011;32377;52.182;5.398;2022-08-20T02:29:34;26.17;;;14.98;;
46651;SDS011;32377;52.182;5.398;2022-08-20T02:31:59;24.10;;;14.43;;
46651;SDS011;32377;52.182;5.398;2022-08-20T02:34:26;26.65;;;13.95;;
46651;SDS011;32377;52.182;5.398;2022-08-20T02:36:51;21.15;;;13.75;;
46651;SDS011;32377;52.182;5.398;2022-08-20T02:39:18;25.80;;;14.73;;
46651;SDS011;32377;52.182;5.398;2022-08-20T02:41:43;30.38;;;14.68;;
46651;SDS011;32377;52.182;5.398;2022-08-20T02:44:09;29.73;;;14.32;;
46651;SDS011;32377;52.182;5.398;2022-08-20T02:46:35;25.70;;;12.90;;
46651;SDS011;32377;52.182;5.398;2022-08-20T02:49:01;23.02;;;13.05;;
46651;SDS011;32377;52.182;5.398;2022-08-20T02:51:27;19.73;;;13.35;;
46651;SDS011;32377;52.182;5.398;2022-08-20T02:53:52;30.60;;;14.07;;
46651;SDS011;32377;52.182;5.398;2022-08-20T02:56:18;22.33;;;13.00;;
46651;SDS011;32377;52.182;5.398;2022-08-20T02:58:44;21.38;;;12.82;;
46651;SDS011;32377;52.182;5.398;2022-08-20T03:01:12;25.55;;;12.50;;
46651;SDS011;32377;52.182;5.398;2022-08-20T03:03:40;21.45;;;11.30;;
46651;SDS011;32377;52.182;5.398;2022-08-20T03:06:07;20.13;;;12.13;;
46651;SDS011;32377;52.182;5.398;2022-08-20T03:08:34;21.50;;;12.25;;
46651;SDS011;32377;52.182;5.398;2022-08-20T03:11:00;21.05;;;11.90;;
46651;SDS011;32377;52.182;5.398;2022-08-20T03:13:27;19.38;;;12.07;;
46651;SDS011;32377;52.182;5.398;2022-08-20T03:15:57;22.30;;;11.43;;
46651;SDS011;32377;52.182;5.398;2022-08-20T03:18:26;27.25;;;11.40;;
46651;SDS011;32377;52.182;5.398;2022-08-20T03:20:58;22.75;;;12.68;;
46651;SDS011;32377;52.182;5.398;2022-08-20T03:23:24;21.15;;;11.68;;
46651;SDS011;32377;52.182;5.398;2022-08-20T03:25:50;20.73;;;12.10;;
46651;SDS011;32377;52.182;5.398;2022-08-20T03:28:16;26.23;;;12.05;;
46651;SDS011;32377;52.182;5.398;2022-08-20T03:30:43;19.00;;;11.75;;
46651;SDS011;32377;52.182;5.398;2022-08-20T03:33:09;22.27;;;12.27;;
46651;SDS011;32377;52.182;5.398;2022-08-20T03:35:36;17.15;;;12.13;;
46651;SDS011;32377;52.182;5.398;2022-08-20T03:38:05;16.25;;;12.13;;
46651;SDS011;32377;52.182;5.398;2022-08-20T03:40:36;21.58;;;12.23;;
46651;SDS011;32377;52.182;5.398;2022-08-20T03:43:02;20.38;;;12.60;;
46651;SDS011;32377;52.182;5.398;2022-08-20T03:45:29;23.25;;;12.85;;
46651;SDS011;32377;52.182;5.398;2022-08-20T03:47:56;24.75;;;13.13;;
46651;SDS011;32377;52.182;5.398;2022-08-20T03:50:25;20.75;;;13.50;;
46651;SDS011;32377;52.182;5.398;2022-08-20T03:52:52;19.83;;;12.90;;
46651;SDS011;32377;52.182;5.398;2022-08-20T03:55:18;23.30;;;13.93;;
46651;SDS011;32377;52.182;5.398;2022-08-20T03:57:46;21.48;;;12.82;;
46651;SDS011;32377;52.182;5.398;2022-08-20T04:00:22;20.13;;;13.13;;
46651;SDS011;32377;52.182;5.398;2022-08-20T04:02:53;21.15;;;12.55;;
46651;SDS011;32377;52.182;5.398;2022-08-20T04:05:21;21.50;;;13.30;;
46651;SDS011;32377;52.182;5.398;2022-08-20T04:07:48;26.42;;;14.23;;
46651;SDS011;32377;52.182;5.398;2022-08-20T04:10:14;24.80;;;14.27;;
46651;SDS011;32377;52.182;5.398;2022-08-20T04:12:41;31.33;;;15.20;;
46651;SDS011;32377;52.182;5.398;2022-08-20T04:15:08;20.23;;;13.63;;
46651;SDS011;32377;52.182;5.398;2022-08-20T04:17:35;18.85;;;13.43;;
46651;SDS011;32377;52.182;5.398;2022-08-20T04:20:03;19.23;;;13.63;;
46651;SDS011;32377;52.182;5.398;2022-08-20T04:22:30;23.20;;;14.93;;
46651;SDS011;32377;52.182;5.398;2022-08-20T04:24:55;26.52;;;14.95;;
46651;SDS011;32377;52.182;5.398;2022-08-20T04:27:21;23.40;;;15.07;;
46651;SDS011;32377;52.182;5.398;2022-08-20T04:29:46;21.95;;;14.90;;
46651;SDS011;32377;52.182;5.398;2022-08-20T04:32:12;25.95;;;14.68;;
46651;SDS011;32377;52.182;5.398;2022-08-20T04:34:38;20.58;;;13.50;;
46651;SDS011;32377;52.182;5.398;2022-08-20T04:37:04;21.77;;;13.95;;
46651;SDS011;32377;52.182;5.398;2022-08-20T04:39:30;19.48;;;14.18;;
46651;SDS011;32377;52.182;5.398;2022-08-20T04:41:56;16.30;;;13.07;;
46651;SDS011;32377;52.182;5.398;2022-08-20T04:44:22;25.98;;;15.13;;
46651;SDS011;32377;52.182;5.398;2022-08-20T04:46:48;21.92;;;15.05;;
46651;SDS011;32377;52.182;5.398;2022-08-20T04:49:13;27.30;;;14.57;;
46651;SDS011;32377;52.182;5.398;2022-08-20T04:51:39;21.27;;;14.52;;
46651;SDS011;32377;52.182;5.398;2022-08-20T04:54:04;25.85;;;15.40;;
46651;SDS011;32377;52.182;5.398;2022-08-20T04:56:31;24.92;;;14.80;;
46651;SDS011;32377;52.182;5.398;2022-08-20T04:59:04;27.15;;;15.63;;
46651;SDS011;32377;52.182;5.398;2022-08-20T05:01:31;26.33;;;14.65;;
46651;SDS011;32377;52.182;5.398;2022-08-20T05:03:57;28.55;;;15.35;;
46651;SDS011;32377;52.182;5.398;2022-08-20T05:06:25;22.55;;;14.30;;
46651;SDS011;32377;52.182;5.398;2022-08-20T05:08:55;21.52;;;14.35;;
46651;SDS011;32377;52.182;5.398;2022-08-20T05:11:23;26.25;;;16.05;;
46651;SDS011;32377;52.182;5.398;2022-08-20T05:13:49;28.25;;;15.65;;
46651;SDS011;32377;52.182;5.398;2022-08-20T05:16:16;29.33;;;15.13;;
46651;SDS011;32377;52.182;5.398;2022-08-20T05:18:42;25.00;;;15.60;;
46651;SDS011;32377;52.182;5.398;2022-08-20T05:21:09;22.20;;;15.52;;
46651;SDS011;32377;52.182;5.398;2022-08-20T05:23:35;21.70;;;14.90;;
46651;SDS011;32377;52.182;5.398;2022-08-20T05:26:05;25.10;;;14.52;;
46651;SDS011;32377;52.182;5.398;2022-08-20T05:28:31;25.88;;;14.20;;
46651;SDS011;32377;52.182;5.398;2022-08-20T05:30:59;24.20;;;14.52;;
46651;SDS011;32377;52.182;5.398;2022-08-20T05:33:25;27.05;;;15.07;;
46651;SDS011;32377;52.182;5.398;2022-08-20T05:35:52;32.60;;;14.55;;
46651;SDS011;32377;52.182;5.398;2022-08-20T05:38:19;29.55;;;14.68;;
46651;SDS011;32377;52.182;5.398;2022-08-20T05:40:48;25.92;;;15.48;;
46651;SDS011;32377;52.182;5.398;2022-08-20T05:43:15;24.90;;;15.10;;
46651;SDS011;32377;52.182;5.398;2022-08-20T05:45:42;26.00;;;15.52;;
46651;SDS011;32377;52.182;5.398;2022-08-20T05:48:10;27.60;;;15.15;;
46651;SDS011;32377;52.182;5.398;2022-08-20T05:50:38;22.27;;;14.48;;
46651;SDS011;32377;52.182;5.398;2022-08-20T05:53:04;23.75;;;14.57;;
46651;SDS011;32377;52.182;5.398;2022-08-20T05:55:30;20.48;;;14.18;;
46651;SDS011;32377;52.182;5.398;2022-08-20T05:57:57;18.38;;;14.20;;
46651;SDS011;32377;52.182;5.398;2022-08-20T06:00:24;22.73;;;14.30;;
46651;SDS011;32377;52.182;5.398;2022-08-20T06:02:50;29.50;;;14.23;;
46651;SDS011;32377;52.182;5.398;2022-08-20T06:05:34;16.70;;;13.23;;
46651;SDS011;32377;52.182;5.398;2022-08-20T06:08:00;18.05;;;12.45;;
46651;SDS011;32377;52.182;5.398;2022-08-20T06:10:29;19.98;;;12.52;;
46651;SDS011;32377;52.182;5.398;2022-08-20T06:12:54;17.17;;;11.70;;
46651;SDS011;32377;52.182;5.398;2022-08-20T06:15:20;16.13;;;11.75;;
46651;SDS011;32377;52.182;5.398;2022-08-20T06:17:46;18.23;;;11.07;;
46651;SDS011;32377;52.182;5.398;2022-08-20T06:20:11;22.13;;;10.35;;
46651;SDS011;32377;52.182;5.398;2022-08-20T06:22:37;15.95;;;9.52;;
46651;SDS011;32377;52.182;5.398;2022-08-20T06:25:03;18.70;;;9.70;;
46651;SDS011;32377;52.182;5.398;2022-08-20T06:27:31;16.02;;;9.20;;
46651;SDS011;32377;52.182;5.398;2022-08-20T06:29:57;17.85;;;9.55;;
46651;SDS011;32377;52.182;5.398;2022-08-20T06:32:23;20.27;;;8.88;;
46651;SDS011;32377;52.182;5.398;2022-08-20T06:34:50;17.15;;;8.07;;
46651;SDS011;32377;52.182;5.398;2022-08-20T06:37:17;21.40;;;8.23;;
46651;SDS011;32377;52.182;5.398;2022-08-20T06:39:50;19.75;;;7.70;;
46651;SDS011;32377;52.182;5.398;2022-08-20T06:42:16;16.92;;;7.53;;
46651;SDS011;32377;52.182;5.398;2022-08-20T06:44:44;22.15;;;7.72;;
46651;SDS011;32377;52.182;5.398;2022-08-20T06:47:13;16.85;;;7.65;;
46651;SDS011;32377;52.182;5.398;2022-08-20T06:49:43;17.70;;;7.13;;
46651;SDS011;32377;52.182;5.398;2022-08-20T06:52:09;14.32;;;7.90;;
46651;SDS011;32377;52.182;5.398;2022-08-20T06:54:34;18.55;;;6.60;;
46651;SDS011;32377;52.182;5.398;2022-08-20T06:57:00;18.70;;;7.05;;
46651;SDS011;32377;52.182;5.398;2022-08-20T06:59:27;21.02;;;6.88;;
46651;SDS011;32377;52.182;5.398;2022-08-20T07:01:52;14.82;;;6.88;;
46651;SDS011;32377;52.182;5.398;2022-08-20T07:04:24;15.82;;;6.00;;
46651;SDS011;32377;52.182;5.398;2022-08-20T07:06:54;20.15;;;4.93;;
46651;SDS011;32377;52.182;5.398;2022-08-20T07:09:22;13.77;;;4.90;;
46651;SDS011;32377;52.182;5.398;2022-08-20T07:11:49;11.93;;;5.07;;
46651;SDS011;32377;52.182;5.398;2022-08-20T07:14:15;14.48;;;4.57;;
46651;SDS011;32377;52.182;5.398;2022-08-20T07:16:42;13.13;;;4.35;;
46651;SDS011;32377;52.182;5.398;2022-08-20T07:19:08;19.23;;;4.93;;
46651;SDS011;32377;52.182;5.398;2022-08-20T07:21:34;11.23;;;3.60;;
46651;SDS011;32377;52.182;5.398;2022-08-20T07:24:00;12.05;;;3.70;;
46651;SDS011;32377;52.182;5.398;2022-08-20T07:26:25;8.48;;;2.70;;
46651;SDS011;32377;52.182;5.398;2022-08-20T07:28:51;12.30;;;2.95;;
46651;SDS011;32377;52.182;5.398;2022-08-20T07:31:18;13.57;;;3.53;;
46651;SDS011;32377;52.182;5.398;2022-08-20T07:36:28;16.65;;;3.53;;
46651;SDS011;32377;52.182;5.398;2022-08-20T07:38:54;12.00;;;2.72;;
46651;SDS011;32377;52.182;5.398;2022-08-20T07:41:20;8.93;;;2.53;;
46651;SDS011;32377;52.182;5.398;2022-08-20T07:43:46;10.35;;;2.78;;
46651;SDS011;32377;52.182;5.398;2022-08-20T07:46:12;14.88;;;3.03;;
46651;SDS011;32377;52.182;5.398;2022-08-20T07:48:41;11.80;;;2.92;;
46651;SDS011;32377;52.182;5.398;2022-08-20T07:51:11;12.20;;;3.70;;
46651;SDS011;32377;52.182;5.398;2022-08-20T07:53:40;11.50;;;3.10;;
46651;SDS011;32377;52.182;5.398;2022-08-20T07:56:07;15.35;;;3.20;;
46651;SDS011;32377;52.182;5.398;2022-08-20T07:58:42;9.88;;;2.33;;
46651;SDS011;32377;52.182;5.398;2022-08-20T08:01:13;12.52;;;2.22;;
46651;SDS011;32377;52.182;5.398;2022-08-20T08:03:40;10.20;;;2.38;;
46651;SDS011;32377;52.182;5.398;2022-08-20T08:06:06;14.07;;;2.67;;
46651;SDS011;32377;52.182;5.398;2022-08-20T08:08:33;7.95;;;2.30;;
46651;SDS011;32377;52.182;5.398;2022-08-20T08:11:00;14.90;;;3.22;;
46651;SDS011;32377;52.182;5.398;2022-08-20T08:13:28;9.48;;;2.15;;
46651;SDS011;32377;52.182;5.398;2022-08-20T08:15:58;10.02;;;2.10;;
46651;SDS011;32377;52.182;5.398;2022-08-20T08:18:27;12.55;;;2.15;;
46651;SDS011;32377;52.182;5.398;2022-08-20T08:20:58;12.73;;;2.88;;
46651;SDS011;32377;52.182;5.398;2022-08-20T08:23:24;10.63;;;2.58;;
46651;SDS011;32377;52.182;5.398;2022-08-20T08:25:50;13.52;;;2.58;;
46651;SDS011;32377;52.182;5.398;2022-08-20T08:28:16;10.15;;;2.40;;
46651;SDS011;32377;52.182;5.398;2022-08-20T08:30:43;10.95;;;2.03;;
46651;SDS011;32377;52.182;5.398;2022-08-20T08:33:17;14.38;;;2.13;;
46651;SDS011;32377;52.182;5.398;2022-08-20T08:38:25;11.98;;;2.10;;
46651;SDS011;32377;52.182;5.398;2022-08-20T08:40:52;9.40;;;2.38;;
46651;SDS011;32377;52.182;5.398;2022-08-20T08:43:21;12.32;;;2.60;;
46651;SDS011;32377;52.182;5.398;2022-08-20T08:45:53;10.88;;;2.10;;
46651;SDS011;32377;52.182;5.398;2022-08-20T08:48:29;12.43;;;2.20;;
46651;SDS011;32377;52.182;5.398;2022-08-20T08:50:58;11.27;;;2.55;;
46651;SDS011;32377;52.182;5.398;2022-08-20T08:53:31;8.32;;;1.95;;
46651;SDS011;32377;52.182;5.398;2022-08-20T08:56:02;8.23;;;2.05;;
46651;SDS011;32377;52.182;5.398;2022-08-20T08:58:29;11.48;;;2.83;;
46651;SDS011;32377;52.182;5.398;2022-08-20T09:00:57;9.07;;;2.50;;
46651;SDS011;32377;52.182;5.398;2022-08-20T09:03:32;7.20;;;2.33;;
46651;SDS011;32377;52.182;5.398;2022-08-20T09:06:01;14.88;;;2.70;;
46651;SDS011;32377;52.182;5.398;2022-08-20T09:08:32;7.40;;;2.08;;
46651;SDS011;32377;52.182;5.398;2022-08-20T09:11:11;8.48;;;2.33;;
46651;SDS011;32377;52.182;5.398;2022-08-20T09:13:38;8.27;;;2.38;;
46651;SDS011;32377;52.182;5.398;2022-08-20T09:16:04;8.13;;;1.98;;
46651;SDS011;32377;52.182;5.398;2022-08-20T09:18:30;12.85;;;2.17;;
46651;SDS011;32377;52.182;5.398;2022-08-20T09:20:56;14.77;;;2.17;;
46651;SDS011;32377;52.182;5.398;2022-08-20T09:23:22;7.07;;;2.30;;
46651;SDS011;32377;52.182;5.398;2022-08-20T09:25:47;4.38;;;1.63;;
46651;SDS011;32377;52.182;5.398;2022-08-20T09:28:13;8.35;;;1.98;;
46651;SDS011;32377;52.182;5.398;2022-08-20T09:30:38;6.55;;;2.00;;
46651;SDS011;32377;52.182;5.398;2022-08-20T09:33:04;9.52;;;2.35;;
46651;SDS011;32377;52.182;5.398;2022-08-20T09:35:29;5.85;;;1.73;;
46651;SDS011;32377;52.182;5.398;2022-08-20T09:37:55;6.15;;;1.70;;
46651;SDS011;32377;52.182;5.398;2022-08-20T09:40:21;7.35;;;2.08;;
46651;SDS011;32377;52.182;5.398;2022-08-20T09:42:47;10.82;;;2.22;;
46651;SDS011;32377;52.182;5.398;2022-08-20T09:45:13;8.15;;;2.10;;
46651;SDS011;32377;52.182;5.398;2022-08-20T09:47:39;8.05;;;1.88;;
46651;SDS011;32377;52.182;5.398;2022-08-20T09:50:05;12.00;;;2.50;;
46651;SDS011;32377;52.182;5.398;2022-08-20T09:52:33;7.85;;;1.92;;
46651;SDS011;32377;52.182;5.398;2022-08-20T09:55:04;10.95;;;2.33;;
46651;SDS011;32377;52.182;5.398;2022-08-20T09:57:40;8.82;;;2.05;;
46651;SDS011;32377;52.182;5.398;2022-08-20T10:00:07;9.65;;;2.28;;
46651;SDS011;32377;52.182;5.398;2022-08-20T10:02:35;8.98;;;1.60;;
46651;SDS011;32377;52.182;5.398;2022-08-20T10:05:01;7.00;;;1.85;;
46651;SDS011;32377;52.182;5.398;2022-08-20T10:07:27;9.15;;;1.70;;
46651;SDS011;32377;52.182;5.398;2022-08-20T10:09:52;4.03;;;1.20;;
46651;SDS011;32377;52.182;5.398;2022-08-20T10:12:18;5.95;;;1.80;;
46651;SDS011;32377;52.182;5.398;2022-08-20T10:14:43;5.43;;;1.80;;
46651;SDS011;32377;52.182;5.398;2022-08-20T10:17:09;7.32;;;1.92;;
46651;SDS011;32377;52.182;5.398;2022-08-20T10:19:34;6.68;;;1.70;;
46651;SDS011;32377;52.182;5.398;2022-08-20T10:22:00;9.77;;;2.20;;
46651;SDS011;32377;52.182;5.398;2022-08-20T10:24:26;6.18;;;1.90;;
46651;SDS011;32377;52.182;5.398;2022-08-20T10:26:55;6.97;;;1.88;;
46651;SDS011;32377;52.182;5.398;2022-08-20T10:29:22;8.52;;;1.98;;
46651;SDS011;32377;52.182;5.398;2022-08-20T10:31:48;7.05;;;1.88;;
46651;SDS011;32377;52.182;5.398;2022-08-20T10:34:14;9.80;;;1.90;;
46651;SDS011;32377;52.182;5.398;2022-08-20T10:36:40;8.50;;;1.77;;
46651;SDS011;32377;52.182;5.398;2022-08-20T10:39:07;6.38;;;2.03;;
46651;SDS011;32377;52.182;5.398;2022-08-20T10:41:33;14.70;;;2.10;;
46651;SDS011;32377;52.182;5.398;2022-08-20T10:43:58;7.82;;;2.10;;
46651;SDS011;32377;52.182;5.398;2022-08-20T10:46:24;11.73;;;2.63;;
46651;SDS011;32377;52.182;5.398;2022-08-20T10:48:50;10.85;;;2.67;;
46651;SDS011;32377;52.182;5.398;2022-08-20T10:51:15;8.00;;;2.40;;
46651;SDS011;32377;52.182;5.398;2022-08-20T10:53:41;9.23;;;2.65;;
46651;SDS011;32377;52.182;5.398;2022-08-20T10:56:07;8.98;;;2.83;;
46651;SDS011;32377;52.182;5.398;2022-08-20T10:58:32;9.50;;;2.33;;
46651;SDS011;32377;52.182;5.398;2022-08-20T11:00:58;11.27;;;3.10;;
46651;SDS011;32377;52.182;5.398;2022-08-20T11:03:23;14.00;;;2.92;;
46651;SDS011;32377;52.182;5.398;2022-08-20T11:05:49;8.73;;;2.47;;
46651;SDS011;32377;52.182;5.398;2022-08-20T11:08:14;9.70;;;2.70;;
46651;SDS011;32377;52.182;5.398;2022-08-20T11:10:40;13.77;;;2.50;;
46651;SDS011;32377;52.182;5.398;2022-08-20T11:13:06;9.48;;;2.40;;
46651;SDS011;32377;52.182;5.398;2022-08-20T11:15:35;11.57;;;2.55;;
46651;SDS011;32377;52.182;5.398;2022-08-20T11:18:02;9.88;;;2.30;;
46651;SDS011;32377;52.182;5.398;2022-08-20T11:20:29;10.02;;;2.25;;
46651;SDS011;32377;52.182;5.398;2022-08-20T11:22:56;9.73;;;2.08;;
46651;SDS011;32377;52.182;5.398;2022-08-20T11:25:22;6.45;;;1.85;;
46651;SDS011;32377;52.182;5.398;2022-08-20T11:27:49;9.32;;;2.40;;
46651;SDS011;32377;52.182;5.398;2022-08-20T11:30:17;10.65;;;1.98;;
46651;SDS011;32377;52.182;5.398;2022-08-20T11:32:45;8.95;;;2.20;;
46651;SDS011;32377;52.182;5.398;2022-08-20T11:35:11;10.25;;;2.80;;
46651;SDS011;32377;52.182;5.398;2022-08-20T11:37:37;8.02;;;2.05;;
46651;SDS011;32377;52.182;5.398;2022-08-20T11:40:03;9.35;;;2.58;;
46651;SDS011;32377;52.182;5.398;2022-08-20T11:42:29;8.52;;;2.30;;
46651;SDS011;32377;52.182;5.398;2022-08-20T11:44:55;8.98;;;2.70;;
46651;SDS011;32377;52.182;5.398;2022-08-20T11:47:22;11.52;;;2.95;;
46651;SDS011;32377;52.182;5.398;2022-08-20T11:49:57;11.00;;;2.42;;
46651;SDS011;32377;52.182;5.398;2022-08-20T11:54:51;8.60;;;2.20;;
46651;SDS011;32377;52.182;5.398;2022-08-20T11:57:20;4.45;;;1.55;;
46651;SDS011;32377;52.182;5.398;2022-08-20T11:59:47;11.10;;;1.90;;
46651;SDS011;32377;52.182;5.398;2022-08-20T12:02:14;8.05;;;2.17;;
46651;SDS011;32377;52.182;5.398;2022-08-20T12:04:40;10.15;;;2.35;;
46651;SDS011;32377;52.182;5.398;2022-08-20T12:07:06;11.38;;;2.15;;
46651;SDS011;32377;52.182;5.398;2022-08-20T12:09:35;11.23;;;2.50;;
46651;SDS011;32377;52.182;5.398;2022-08-20T12:12:01;10.20;;;2.40;;
46651;SDS011;32377;52.182;5.398;2022-08-20T12:14:27;12.80;;;2.40;;
46651;SDS011;32377;52.182;5.398;2022-08-20T12:16:52;9.02;;;2.30;;
46651;SDS011;32377;52.182;5.398;2022-08-20T12:19:18;7.47;;;2.08;;
46651;SDS011;32377;52.182;5.398;2022-08-20T12:21:43;10.45;;;2.65;;
46651;SDS011;32377;52.182;5.398;2022-08-20T12:24:09;13.02;;;2.17;;
46651;SDS011;32377;52.182;5.398;2022-08-20T12:26:34;9.27;;;2.38;;
46651;SDS011;32377;52.182;5.398;2022-08-20T12:29:00;9.35;;;2.47;;
46651;SDS011;32377;52.182;5.398;2022-08-20T12:31:25;10.20;;;2.17;;
46651;SDS011;32377;52.182;5.398;2022-08-20T12:33:51;8.25;;;1.90;;
46651;SDS011;32377;52.182;5.398;2022-08-20T12:36:17;6.35;;;2.05;;
46651;SDS011;32377;52.182;5.398;2022-08-20T12:38:42;6.90;;;2.50;;
46651;SDS011;32377;52.182;5.398;2022-08-20T12:41:08;7.93;;;2.05;;
46651;SDS011;32377;52.182;5.398;2022-08-20T12:43:33;10.63;;;2.53;;
46651;SDS011;32377;52.182;5.398;2022-08-20T12:45:59;7.45;;;2.15;;
46651;SDS011;32377;52.182;5.398;2022-08-20T12:48:24;8.15;;;2.00;;
46651;SDS011;32377;52.182;5.398;2022-08-20T12:50:50;6.05;;;2.00;;
46651;SDS011;32377;52.182;5.398;2022-08-20T12:53:16;8.93;;;2.53;;
46651;SDS011;32377;52.182;5.398;2022-08-20T12:55:42;10.05;;;2.60;;
46651;SDS011;32377;52.182;5.398;2022-08-20T12:58:08;14.52;;;2.78;;
46651;SDS011;32377;52.182;5.398;2022-08-20T13:00:36;9.13;;;2.38;;
46651;SDS011;32377;52.182;5.398;2022-08-20T13:03:05;9.20;;;2.88;;
46651;SDS011;32377;52.182;5.398;2022-08-20T13:05:31;8.90;;;1.80;;
46651;SDS011;32377;52.182;5.398;2022-08-20T13:07:58;9.65;;;2.30;;
46651;SDS011;32377;52.182;5.398;2022-08-20T13:10:25;10.40;;;2.88;;
46651;SDS011;32377;52.182;5.398;2022-08-20T13:12:53;9.57;;;2.22;;
46651;SDS011;32377;52.182;5.398;2022-08-20T13:15:19;13.20;;;3.13;;
46651;SDS011;32377;52.182;5.398;2022-08-20T13:17:49;8.05;;;2.47;;
46651;SDS011;32377;52.182;5.398;2022-08-20T13:20:19;11.38;;;2.70;;
46651;SDS011;32377;52.182;5.398;2022-08-20T13:22:49;14.30;;;2.70;;
46651;SDS011;32377;52.182;5.398;2022-08-20T13:25:14;10.73;;;2.75;;
46651;SDS011;32377;52.182;5.398;2022-08-20T13:27:40;11.25;;;2.63;;
46651;SDS011;32377;52.182;5.398;2022-08-20T13:30:07;10.57;;;2.78;;
46651;SDS011;32377;52.182;5.398;2022-08-20T13:32:35;9.57;;;3.22;;
46651;SDS011;32377;52.182;5.398;2022-08-20T13:35:00;10.13;;;3.00;;
46651;SDS011;32377;52.182;5.398;2022-08-20T13:37:27;11.98;;;2.40;;
46651;SDS011;32377;52.182;5.398;2022-08-20T13:39:53;8.13;;;2.80;;
46651;SDS011;32377;52.182;5.398;2022-08-20T13:42:20;9.32;;;2.65;;
46651;SDS011;32377;52.182;5.398;2022-08-20T13:44:46;14.48;;;3.17;;
46651;SDS011;32377;52.182;5.398;2022-08-20T13:49:42;10.70;;;2.50;;
46651;SDS011;32377;52.182;5.398;2022-08-20T13:52:08;10.77;;;3.13;;
46651;SDS011;32377;52.182;5.398;2022-08-20T13:54:34;8.63;;;2.50;;
46651;SDS011;32377;52.182;5.398;2022-08-20T13:57:10;8.50;;;2.70;;
46651;SDS011;32377;52.182;5.398;2022-08-20T13:59:39;7.05;;;2.33;;
46651;SDS011;32377;52.182;5.398;2022-08-20T14:02:07;11.40;;;3.22;;
46651;SDS011;32377;52.182;5.398;2022-08-20T14:04:34;10.93;;;2.65;;
46651;SDS011;32377;52.182;5.398;2022-08-20T14:07:10;11.55;;;3.20;;
46651;SDS011;32377;52.182;5.398;2022-08-20T14:09:39;9.15;;;2.67;;
46651;SDS011;32377;52.182;5.398;2022-08-20T14:12:07;9.60;;;2.92;;
46651;SDS011;32377;52.182;5.398;2022-08-20T14:14:33;14.40;;;2.88;;
46651;SDS011;32377;52.182;5.398;2022-08-20T14:17:01;13.30;;;3.08;;
46651;SDS011;32377;52.182;5.398;2022-08-20T14:19:44;10.93;;;2.67;;
46651;SDS011;32377;52.182;5.398;2022-08-20T14:22:11;10.10;;;2.60;;
46651;SDS011;32377;52.182;5.398;2022-08-20T14:24:37;10.38;;;2.42;;
46651;SDS011;32377;52.182;5.398;2022-08-20T14:27:03;10.88;;;3.10;;
46651;SDS011;32377;52.182;5.398;2022-08-20T14:29:32;15.10;;;2.67;;
46651;SDS011;32377;52.182;5.398;2022-08-20T14:31:58;8.55;;;2.50;;
46651;SDS011;32377;52.182;5.398;2022-08-20T14:34:24;10.30;;;2.10;;
46651;SDS011;32377;52.182;5.398;2022-08-20T14:36:50;8.70;;;2.20;;
46651;SDS011;32377;52.182;5.398;2022-08-20T14:39:15;8.60;;;2.38;;
46651;SDS011;32377;52.182;5.398;2022-08-20T14:41:41;6.90;;;2.25;;
46651;SDS011;32377;52.182;5.398;2022-08-20T14:44:06;7.88;;;2.45;;
46651;SDS011;32377;52.182;5.398;2022-08-20T14:46:32;13.15;;;2.65;;
46651;SDS011;32377;52.182;5.398;2022-08-20T14:48:57;6.93;;;2.58;;
46651;SDS011;32377;52.182;5.398;2022-08-20T14:51:23;12.32;;;2.83;;
46651;SDS011;32377;52.182;5.398;2022-08-20T14:53:48;9.80;;;2.72;;